Time;durP1;ratioP1;P1;durP2;ratioP2;P2;SDS_P1;SDS_P2;PMS_P1;PMS_P2;Temp;Humidity;BMP_temperature;BMP_pressure;BME280_temperature;BME280_humidity;BME280_pressure;Samples;Min_cycle;Max_cycle;Signal;HPM_P1;HPM_P2
2024/04/22 00:00:40;;;;;;;4.45;4.05;;;5.00;84.90;;;;;;5482396;26;20876;-63
2024/04/22 00:03:06;;;;;;;5.35;4.65;;;5.00;84.90;;;;;;5471279;26;20116;-63
2024/04/22 00:05:31;;;;;;;7.30;5.50;;;5.00;84.90;;;;;;5468575;26;20018;-62
2024/04/22 00:07:57;;;;;;;7.13;6.13;;;5.00;84.90;;;;;;5482468;26;20077;-63
2024/04/22 00:10:23;;;;;;;7.20;6.45;;;5.00;85.10;;;;;;5473336;26;20043;-63
2024/04/22 00:12:50;;;;;;;7.47;6.72;;;5.00;85.10;;;;;;5468544;26;20002;-64
2024/04/22 00:15:15;;;;;;;8.23;7.07;;;5.00;85.10;;;;;;5466355;26;19998;-63
2024/04/22 00:17:41;;;;;;;8.90;7.40;;;5.00;85.20;;;;;;5476365;26;20410;-63
2024/04/22 00:20:07;;;;;;;7.78;6.97;;;5.00;85.20;;;;;;5472463;26;20001;-63
2024/04/22 00:22:32;;;;;;;8.00;6.95;;;5.00;85.40;;;;;;5467513;26;20322;-63
2024/04/22 00:24:58;;;;;;;7.43;6.38;;;5.00;85.40;;;;;;5470083;26;20018;-63
2024/04/22 00:27:24;;;;;;;8.07;7.05;;;5.00;85.40;;;;;;5468622;26;19990;-62
2024/04/22 00:29:50;;;;;;;8.65;7.20;;;5.00;85.40;;;;;;5469161;26;20472;-63
2024/04/22 00:32:15;;;;;;;8.40;6.78;;;5.00;85.50;;;;;;5473293;26;19995;-62
2024/04/22 00:34:41;;;;;;;7.47;6.45;;;5.00;85.60;;;;;;5473197;26;20013;-63
2024/04/22 00:37:07;;;;;;;6.68;5.80;;;5.00;85.50;;;;;;5474964;26;20002;-61
2024/04/22 00:39:33;;;;;;;6.85;5.80;;;5.00;85.60;;;;;;5415953;26;20452;-63
2024/04/22 00:41:59;;;;;;;6.35;5.70;;;5.00;85.70;;;;;;5468266;26;19994;-62
2024/04/22 00:44:24;;;;;;;5.97;5.28;;;5.00;85.60;;;;;;5480347;26;20005;-62
2024/04/22 00:46:50;;;;;;;6.38;5.60;;;5.00;85.40;;;;;;5475023;26;19994;-63
2024/04/22 00:49:16;;;;;;;6.47;5.10;;;5.10;85.20;;;;;;5472725;26;21581;-61
2024/04/22 00:51:43;;;;;;;5.72;4.85;;;5.10;84.90;;;;;;5474014;26;19995;-63
2024/04/22 00:54:11;;;;;;;5.78;5.18;;;5.10;84.70;;;;;;5478498;26;20548;-63
2024/04/22 00:56:38;;;;;;;6.60;5.00;;;5.10;84.70;;;;;;5468266;26;20036;-61
2024/04/22 00:59:05;;;;;;;5.47;4.80;;;5.10;84.50;;;;;;5473087;26;20676;-62
2024/04/22 01:01:32;;;;;;;5.43;4.85;;;5.10;84.40;;;;;;5476371;26;19990;-62
2024/04/22 01:03:57;;;;;;;5.95;4.93;;;5.00;84.10;;;;;;5477185;26;20005;-63
2024/04/22 01:06:23;;;;;;;8.05;5.03;;;5.00;84.10;;;;;;5476330;26;19990;-62
2024/04/22 01:08:49;;;;;;;6.63;4.55;;;5.00;84.30;;;;;;5474468;26;20005;-62
2024/04/22 01:11:15;;;;;;;5.28;4.43;;;5.00;84.30;;;;;;5466434;26;19998;-63
2024/04/22 01:13:41;;;;;;;5.35;4.50;;;5.00;84.20;;;;;;5465834;26;20009;-62
2024/04/22 01:16:06;;;;;;;6.20;4.93;;;5.00;84.10;;;;;;5477857;26;20002;-63
2024/04/22 01:18:32;;;;;;;5.38;4.57;;;5.00;84.00;;;;;;5474784;26;19994;-63
2024/04/22 01:20:57;;;;;;;6.18;4.50;;;5.00;83.90;;;;;;5470937;26;20340;-62
2024/04/22 01:23:23;;;;;;;6.65;4.85;;;5.00;83.70;;;;;;5467976;26;19994;-63
2024/04/22 01:25:57;;;;;;;4.93;4.43;;;5.00;83.70;;;;;;5473939;26;19998;-61
2024/04/22 01:28:23;;;;;;;5.93;4.75;;;5.00;83.70;;;;;;5475757;26;19998;-62
2024/04/22 01:30:49;;;;;;;5.38;4.38;;;5.00;83.50;;;;;;5466486;26;19999;-63
2024/04/22 01:33:15;;;;;;;6.00;4.45;;;5.00;83.40;;;;;;5477462;26;20060;-62
2024/04/22 01:35:40;;;;;;;5.15;4.40;;;4.90;83.20;;;;;;5467459;26;20002;-62
2024/04/22 01:38:06;;;;;;;5.68;4.57;;;4.90;83.20;;;;;;5474341;26;20434;-63
2024/04/22 01:40:32;;;;;;;5.95;4.70;;;4.90;83.10;;;;;;5472380;26;20010;-63
2024/04/22 01:42:57;;;;;;;4.82;3.92;;;4.90;83.20;;;;;;5474227;26;19998;-62
2024/04/22 01:45:23;;;;;;;5.32;4.35;;;4.90;84.00;;;;;;5465679;26;20002;-62
2024/04/22 01:47:48;;;;;;;7.70;4.47;;;4.90;83.30;;;;;;5474158;26;19990;-63
2024/04/22 01:50:14;;;;;;;5.30;4.55;;;4.90;83.20;;;;;;5439550;26;20018;-62
2024/04/22 01:52:39;;;;;;;4.60;4.20;;;4.90;83.10;;;;;;5472448;26;19990;-63
2024/04/22 01:55:05;;;;;;;6.10;4.68;;;4.90;83.00;;;;;;5463898;26;20314;-63
2024/04/22 01:57:31;;;;;;;5.10;4.15;;;4.90;83.20;;;;;;5474610;26;20002;-63
2024/04/22 01:59:56;;;;;;;5.72;4.22;;;4.90;83.20;;;;;;5440052;26;20648;-63
2024/04/22 02:02:22;;;;;;;4.45;3.97;;;4.90;83.20;;;;;;5471475;26;20070;-63
2024/04/22 02:04:47;;;;;;;6.97;4.00;;;4.90;83.20;;;;;;5477298;26;19994;-62
2024/04/22 02:07:13;;;;;;;4.72;3.58;;;4.90;82.70;;;;;;5470306;26;20009;-63
2024/04/22 02:09:38;;;;;;;5.68;4.03;;;4.80;82.50;;;;;;5466383;26;20596;-63
2024/04/22 02:12:04;;;;;;;6.65;3.83;;;4.80;82.30;;;;;;5470523;26;20005;-63
2024/04/22 02:14:30;;;;;;;4.03;3.55;;;4.80;82.30;;;;;;5472724;26;19998;-63
2024/04/22 02:16:56;;;;;;;4.90;3.60;;;4.80;82.30;;;;;;5477285;26;19994;-62
2024/04/22 02:19:21;;;;;;;4.25;3.60;;;4.80;82.50;;;;;;5475330;26;20026;-63
2024/04/22 02:21:47;;;;;;;4.00;3.60;;;4.80;82.40;;;;;;5470005;26;20014;-63
2024/04/22 02:24:12;;;;;;;5.13;3.50;;;4.80;82.50;;;;;;5474463;26;20010;-63
2024/04/22 02:26:38;;;;;;;5.32;3.85;;;4.70;82.50;;;;;;5470822;26;20018;-63
2024/04/22 02:29:03;;;;;;;4.68;4.05;;;4.70;82.60;;;;;;5475186;26;20002;-63
2024/04/22 02:31:29;;;;;;;5.68;3.88;;;4.70;82.60;;;;;;5474809;26;20485;-63
2024/04/22 02:33:54;;;;;;;5.28;3.97;;;4.70;82.50;;;;;;5476370;26;19990;-62
2024/04/22 02:36:20;;;;;;;4.28;3.85;;;4.70;82.50;;;;;;5474710;26;20066;-63
2024/04/22 02:38:46;;;;;;;5.32;3.92;;;4.70;82.50;;;;;;5468989;26;20003;-63
2024/04/22 02:41:11;;;;;;;4.05;3.65;;;4.70;82.50;;;;;;5474272;26;20006;-63
2024/04/22 02:43:37;;;;;;;5.65;3.83;;;4.70;82.60;;;;;;5478247;26;20012;-63
2024/04/22 02:46:02;;;;;;;4.30;3.88;;;4.70;82.70;;;;;;5478158;26;20034;-62
2024/04/22 02:48:28;;;;;;;3.70;3.40;;;4.70;82.80;;;;;;5478117;26;20554;-62
2024/04/22 02:50:53;;;;;;;4.40;3.53;;;4.70;82.80;;;;;;5474010;26;20013;-63
2024/04/22 02:53:19;;;;;;;4.93;4.43;;;4.70;82.80;;;;;;5475034;26;20018;-64
2024/04/22 02:55:48;;;;;;;4.75;4.07;;;4.70;82.90;;;;;;5460310;26;20131;-63
2024/04/22 02:58:13;;;;;;;5.03;4.03;;;4.60;82.90;;;;;;5474056;26;19994;-63
2024/04/22 03:00:44;;;;;;;5.78;4.28;;;4.60;82.80;;;;;;5475880;26;20012;-62
2024/04/22 03:03:10;;;;;;;4.95;4.30;;;4.60;83.00;;;;;;5481705;26;20006;-63
2024/04/22 03:05:36;;;;;;;4.85;3.95;;;4.60;83.00;;;;;;5472213;26;20510;-63
2024/04/22 03:08:02;;;;;;;6.25;4.45;;;4.60;82.70;;;;;;5480744;26;20506;-62
2024/04/22 03:10:27;;;;;;;7.28;4.25;;;4.60;82.70;;;;;;5477397;26;20053;-63
2024/04/22 03:12:53;;;;;;;6.72;4.45;;;4.60;82.70;;;;;;5481286;26;20338;-62
2024/04/22 03:15:18;;;;;;;4.90;4.05;;;4.50;82.70;;;;;;5475209;26;19998;-63
2024/04/22 03:17:44;;;;;;;5.38;4.50;;;4.50;82.80;;;;;;5479153;26;20005;-63
2024/04/22 03:20:10;;;;;;;7.22;4.88;;;4.50;82.80;;;;;;5469822;26;19994;-62
2024/04/22 03:22:36;;;;;;;5.93;4.75;;;4.50;82.80;;;;;;5479135;26;20087;-63
2024/04/22 03:25:02;;;;;;;5.50;4.45;;;4.40;82.90;;;;;;5479173;26;20001;-63
2024/04/22 03:27:27;;;;;;;6.25;4.90;;;4.40;83.10;;;;;;5469055;26;20395;-63
2024/04/22 03:29:53;;;;;;;6.25;4.97;;;4.40;83.20;;;;;;5466568;26;19994;-63
2024/04/22 03:32:18;;;;;;;8.55;4.82;;;4.40;83.20;;;;;;5467997;26;20099;-63
2024/04/22 03:34:44;;;;;;;5.57;4.75;;;4.40;83.10;;;;;;5440539;26;20014;-63
2024/04/22 03:37:09;;;;;;;5.55;4.70;;;4.40;83.00;;;;;;5471148;26;20379;-63
2024/04/22 03:39:35;;;;;;;6.05;4.82;;;4.40;83.10;;;;;;5469260;26;20006;-63
2024/04/22 03:42:01;;;;;;;7.07;4.95;;;4.40;83.00;;;;;;5467763;26;20034;-63
2024/04/22 03:44:27;;;;;;;7.22;4.85;;;4.40;83.10;;;;;;5473042;26;20005;-63
2024/04/22 03:49:54;;;;;;;5.00;4.43;;;4.40;83.20;;;;;;5468383;26;20031;-63
2024/04/22 03:52:19;;;;;;;6.43;4.60;;;4.30;83.20;;;;;;5474347;26;19994;-63
2024/04/22 03:54:45;;;;;;;6.07;4.45;;;4.30;83.30;;;;;;5477785;26;20017;-63
2024/04/22 03:57:10;;;;;;;6.72;4.50;;;4.30;83.30;;;;;;5473154;26;20402;-63
2024/04/22 03:59:38;;;;;;;6.40;4.15;;;4.30;83.20;;;;;;5469234;26;20014;-63
2024/04/22 04:02:03;;;;;;;5.60;4.03;;;4.30;83.20;;;;;;5439963;26;20373;-61
2024/04/22 04:04:29;;;;;;;5.15;3.90;;;4.30;83.20;;;;;;5470740;26;20010;-62
2024/04/22 04:06:55;;;;;;;5.20;3.92;;;4.20;83.20;;;;;;5469243;26;20518;-61
2024/04/22 04:09:20;;;;;;;5.78;4.03;;;4.20;83.20;;;;;;5471316;26;19990;-61
2024/04/22 04:11:47;;;;;;;4.47;3.80;;;4.20;83.30;;;;;;5473280;26;20010;-61
2024/04/22 04:14:12;;;;;;;6.10;3.83;;;4.20;83.30;;;;;;5469094;26;20051;-62
2024/04/22 04:16:38;;;;;;;4.50;3.60;;;4.20;83.40;;;;;;5473695;26;20468;-62
2024/04/22 04:19:03;;;;;;;3.88;3.45;;;4.20;83.50;;;;;;5477938;26;20338;-63
2024/04/22 04:21:29;;;;;;;4.53;3.67;;;4.10;83.50;;;;;;5473627;26;20002;-62
2024/04/22 04:23:55;;;;;;;5.20;3.60;;;4.20;83.80;;;;;;5478767;26;20026;-62
2024/04/22 04:26:21;;;;;;;4.38;3.55;;;4.10;83.70;;;;;;5471962;26;19994;-63
2024/04/22 04:28:47;;;;;;;5.38;4.10;;;4.20;83.80;;;;;;5461074;26;19994;-62
2024/04/22 04:31:13;;;;;;;4.00;3.60;;;4.10;83.70;;;;;;5472058;26;20003;-62
2024/04/22 04:33:38;;;;;;;4.20;3.80;;;4.10;83.80;;;;;;5470670;26;20009;-61
2024/04/22 04:36:06;;;;;;;4.50;3.70;;;4.10;83.90;;;;;;5469672;26;20009;-62
2024/04/22 04:38:32;;;;;;;4.13;3.72;;;4.10;84.10;;;;;;5479720;26;20019;-63
2024/04/22 04:40:58;;;;;;;5.88;4.72;;;4.10;84.30;;;;;;5465806;26;19994;-62
2024/04/22 04:43:24;;;;;;;5.00;4.25;;;4.10;84.40;;;;;;5479166;26;19998;-62
2024/04/22 04:45:51;;;;;;;8.40;4.88;;;4.10;84.40;;;;;;5482193;26;20022;-61
2024/04/22 04:48:17;;;;;;;6.10;4.72;;;4.10;84.50;;;;;;5477554;26;19994;-63
2024/04/22 04:50:43;;;;;;;6.38;5.00;;;4.10;84.40;;;;;;5476885;26;20066;-61
2024/04/22 04:53:11;;;;;;;5.82;4.95;;;4.10;84.40;;;;;;5478717;26;19994;-62
2024/04/22 04:55:36;;;;;;;5.80;4.88;;;4.10;84.60;;;;;;5471189;26;20010;-63
2024/04/22 04:58:02;;;;;;;6.57;4.72;;;4.10;84.50;;;;;;5462520;26;20074;-62
2024/04/22 05:00:27;;;;;;;6.72;5.10;;;4.10;84.70;;;;;;5476951;26;20006;-63
2024/04/22 05:02:53;;;;;;;6.68;5.50;;;4.10;84.70;;;;;;5481138;26;20001;-62
2024/04/22 05:05:18;;;;;;;7.25;4.97;;;4.10;84.80;;;;;;5474843;26;19998;-62
2024/04/22 05:07:46;;;;;;;6.05;5.00;;;4.10;84.70;;;;;;5481385;26;20434;-62
2024/04/22 05:10:12;;;;;;;8.20;5.65;;;4.10;84.70;;;;;;5471079;26;20006;-63
2024/04/22 05:12:38;;;;;;;10.65;6.95;;;4.10;84.80;;;;;;5474313;26;20010;-62
2024/04/22 05:15:04;;;;;;;6.03;5.18;;;4.20;84.90;;;;;;5476367;26;19994;-62
2024/04/22 05:17:30;;;;;;;7.07;4.88;;;4.10;84.90;;;;;;5481533;26;20002;-62
2024/04/22 05:19:55;;;;;;;7.10;4.85;;;4.10;84.90;;;;;;5473502;26;20478;-62
2024/04/22 05:22:21;;;;;;;5.97;5.28;;;4.10;85.00;;;;;;5476856;26;19994;-62
2024/04/22 05:24:47;;;;;;;6.15;5.15;;;4.10;85.00;;;;;;5478426;26;19998;-61
2024/04/22 05:27:12;;;;;;;11.18;5.63;;;4.10;84.90;;;;;;5468262;26;20071;-62
2024/04/22 05:29:38;;;;;;;8.15;5.68;;;4.10;84.90;;;;;;5478460;26;20416;-62
2024/04/22 05:32:03;;;;;;;5.50;4.90;;;4.10;85.00;;;;;;5466685;26;20330;-63
2024/04/22 05:37:13;;;;;;;7.47;5.43;;;4.10;85.20;;;;;;5478426;26;20126;-63
2024/04/22 05:39:39;;;;;;;5.93;5.07;;;4.10;85.20;;;;;;5475292;26;20006;-63
2024/04/22 05:42:05;;;;;;;5.32;4.63;;;4.10;85.20;;;;;;5477053;26;20373;-63
2024/04/22 05:44:31;;;;;;;5.57;4.93;;;4.10;85.30;;;;;;5480299;26;20005;-62
2024/04/22 05:46:57;;;;;;;7.68;6.03;;;4.10;85.40;;;;;;5462711;26;19990;-63
2024/04/22 05:49:24;;;;;;;8.40;5.50;;;4.10;85.50;;;;;;5481332;26;20006;-63
2024/04/22 05:51:50;;;;;;;8.00;5.32;;;4.10;85.50;;;;;;5448367;26;20473;-63
2024/04/22 05:54:16;;;;;;;6.60;5.68;;;4.10;85.60;;;;;;5450261;26;20003;-63
2024/04/22 05:56:43;;;;;;;6.82;5.25;;;4.10;85.60;;;;;;5483711;26;19998;-63
2024/04/22 05:59:12;;;;;;;7.78;5.20;;;4.10;85.60;;;;;;5478219;26;20468;-63
2024/04/22 06:01:37;;;;;;;5.82;5.00;;;4.10;85.60;;;;;;5477481;26;19990;-63
2024/04/22 06:04:04;;;;;;;8.60;5.18;;;4.10;85.60;;;;;;5483679;26;20009;-63
2024/04/22 06:06:31;;;;;;;6.43;5.28;;;4.10;85.80;;;;;;5467503;26;20018;-62
2024/04/22 06:08:56;;;;;;;6.90;5.07;;;4.10;85.80;;;;;;5477048;26;20015;-63
2024/04/22 06:11:22;;;;;;;7.63;5.68;;;4.10;85.80;;;;;;5473227;26;20006;-63
2024/04/22 06:13:48;;;;;;;9.95;5.53;;;4.10;86.40;;;;;;5477975;26;20006;-64
2024/04/22 06:16:14;;;;;;;8.43;5.95;;;4.20;85.60;;;;;;5478625;26;20402;-63
2024/04/22 06:18:39;;;;;;;5.97;5.35;;;4.10;85.60;;;;;;5473348;26;19995;-62
2024/04/22 06:21:05;;;;;;;6.60;5.53;;;4.10;85.60;;;;;;5482124;26;20014;-63
2024/04/22 06:23:31;;;;;;;6.85;5.18;;;4.10;85.60;;;;;;5476607;26;20006;-63
2024/04/22 06:26:04;;;;;;;8.98;5.43;;;4.10;85.60;;;;;;5474459;26;19995;-62
2024/04/22 06:28:30;;;;;;;7.70;5.90;;;4.10;85.80;;;;;;5479222;26;20021;-62
2024/04/22 06:30:56;;;;;;;8.32;5.40;;;4.10;85.80;;;;;;5468669;26;20075;-63
2024/04/22 06:33:22;;;;;;;7.03;5.40;;;4.10;85.70;;;;;;5480538;26;19998;-63
2024/04/22 06:35:47;;;;;;;8.27;5.55;;;4.10;85.80;;;;;;5481391;26;20002;-62
2024/04/22 06:38:13;;;;;;;7.60;5.68;;;4.10;85.80;;;;;;5473781;26;19990;-61
2024/04/22 06:40:41;;;;;;;9.32;5.75;;;4.10;85.90;;;;;;5482191;26;20462;-62
2024/04/22 06:43:07;;;;;;;6.18;5.05;;;4.10;85.90;;;;;;5472638;26;20009;-62
2024/04/22 06:45:32;;;;;;;6.70;5.47;;;4.10;85.60;;;;;;5477571;26;19998;-61
2024/04/22 06:47:58;;;;;;;6.25;5.60;;;4.20;85.80;;;;;;5482072;26;20361;-62
2024/04/22 06:50:24;;;;;;;7.00;5.13;;;4.20;85.80;;;;;;5473066;26;20010;-62
2024/04/22 06:52:49;;;;;;;7.40;5.65;;;4.20;85.80;;;;;;5476895;26;20009;-63
2024/04/22 06:55:15;;;;;;;6.00;5.18;;;4.20;85.80;;;;;;5479345;26;20002;-61
2024/04/22 06:57:40;;;;;;;7.18;5.72;;;4.20;85.80;;;;;;5476902;26;19995;-63
2024/04/22 07:00:06;;;;;;;5.95;5.22;;;4.20;85.80;;;;;;5478561;26;20004;-61
2024/04/22 07:02:32;;;;;;;6.25;5.18;;;4.30;85.80;;;;;;5474694;26;20566;-63
2024/04/22 07:04:58;;;;;;;6.85;5.30;;;4.20;86.30;;;;;;5478756;26;20030;-63
2024/04/22 07:07:24;;;;;;;9.27;5.38;;;4.30;85.50;;;;;;5464069;26;20351;-60
2024/04/22 07:09:49;;;;;;;8.02;5.15;;;4.30;85.40;;;;;;5442765;26;20042;-62
2024/04/22 07:12:15;;;;;;;8.77;5.40;;;4.30;85.40;;;;;;5472549;26;20075;-63
2024/04/22 07:14:40;;;;;;;8.40;5.68;;;4.30;85.30;;;;;;5468746;26;20010;-61
2024/04/22 07:17:06;;;;;;;7.63;5.75;;;4.30;85.30;;;;;;5439238;26;19994;-61
2024/04/22 07:19:32;;;;;;;8.05;5.57;;;4.30;85.30;;;;;;5474625;26;19994;-63
2024/04/22 07:22:00;;;;;;;6.57;5.28;;;4.30;85.30;;;;;;5470095;26;20406;-62
2024/04/22 07:24:26;;;;;;;7.55;5.85;;;4.30;85.10;;;;;;5481011;26;20035;-63
2024/04/22 07:26:51;;;;;;;7.63;5.55;;;4.30;85.10;;;;;;5479482;26;19990;-62
2024/04/22 07:29:17;;;;;;;7.68;6.10;;;4.30;85.20;;;;;;5480141;26;20009;-63
2024/04/22 07:31:45;;;;;;;7.63;5.82;;;4.30;85.30;;;;;;5478201;26;20502;-62
2024/04/22 07:34:11;;;;;;;8.23;6.07;;;4.30;85.40;;;;;;5477272;26;20331;-63
2024/04/22 07:36:37;;;;;;;8.82;5.55;;;4.30;85.40;;;;;;5476828;26;20078;-62
2024/04/22 07:39:05;;;;;;;6.90;5.40;;;4.30;85.30;;;;;;5471247;26;20346;-62
2024/04/22 07:41:32;;;;;;;6.70;5.38;;;4.30;85.40;;;;;;5474065;26;19994;-63
2024/04/22 07:43:58;;;;;;;6.90;5.38;;;4.30;85.40;;;;;;5478470;26;20006;-60
2024/04/22 07:46:24;;;;;;;7.97;5.47;;;4.30;85.30;;;;;;5445222;26;20338;-63
2024/04/22 07:48:50;;;;;;;6.70;5.30;;;4.40;85.60;;;;;;5476680;26;20487;-62
2024/04/22 07:51:15;;;;;;;6.50;5.18;;;4.40;85.80;;;;;;5478701;26;19990;-63
2024/04/22 07:53:42;;;;;;;7.35;4.82;;;4.40;85.80;;;;;;5481162;26;20034;-62
2024/04/22 07:56:17;;;;;;;6.38;5.20;;;4.40;85.80;;;;;;5479517;26;20353;-62
2024/04/22 07:58:44;;;;;;;6.10;5.40;;;4.40;86.00;;;;;;5478471;26;20263;-63
2024/04/22 08:01:12;;;;;;;7.38;5.28;;;4.40;85.70;;;;;;5477853;26;20402;-62
2024/04/22 08:03:38;;;;;;;7.63;5.20;;;4.50;85.60;;;;;;5447390;26;20338;-61
2024/04/22 08:06:06;;;;;;;6.40;5.20;;;4.50;85.60;;;;;;5458137;26;20403;-62
2024/04/22 08:08:38;;;;;;;6.65;5.25;;;4.50;85.80;;;;;;5462340;26;20470;-61
2024/04/22 08:11:03;;;;;;;7.57;5.43;;;4.60;85.80;;;;;;5475294;26;19998;-63
2024/04/22 08:13:29;;;;;;;7.50;5.15;;;4.60;85.80;;;;;;5462953;26;20048;-62
2024/04/22 08:15:54;;;;;;;8.10;5.32;;;4.60;85.60;;;;;;5470365;26;20007;-63
2024/04/22 08:18:20;;;;;;;7.47;5.50;;;4.60;85.60;;;;;;5466505;26;19995;-63
2024/04/22 08:20:46;;;;;;;7.20;5.60;;;4.70;85.30;;;;;;5468975;26;20002;-61
2024/04/22 08:23:11;;;;;;;7.35;5.47;;;4.70;85.10;;;;;;5479758;26;20070;-62
2024/04/22 08:25:37;;;;;;;5.78;5.20;;;4.70;85.10;;;;;;5479815;26;19994;-63
2024/04/22 08:28:02;;;;;;;7.43;5.45;;;4.70;85.10;;;;;;5475714;26;19991;-61
2024/04/22 08:30:28;;;;;;;5.72;5.10;;;4.70;85.20;;;;;;5470080;26;20466;-63
2024/04/22 08:32:54;;;;;;;12.05;8.75;;;4.70;85.40;;;;;;5479250;26;20353;-63
2024/04/22 08:35:20;;;;;;;7.10;6.05;;;4.70;85.30;;;;;;5471352;26;20017;-62
2024/04/22 08:37:46;;;;;;;7.93;5.90;;;4.70;85.40;;;;;;5477589;26;19990;-62
2024/04/22 08:40:11;;;;;;;6.03;5.10;;;4.80;85.50;;;;;;5472494;26;20375;-61
2024/04/22 08:42:38;;;;;;;6.47;5.18;;;4.80;85.30;;;;;;5479121;26;19994;-62
2024/04/22 08:45:05;;;;;;;5.75;5.10;;;4.80;85.30;;;;;;5474592;26;20477;-63
2024/04/22 08:47:31;;;;;;;6.40;5.65;;;4.90;85.20;;;;;;5471291;26;19995;-61
2024/04/22 08:49:57;;;;;;;6.90;5.50;;;4.90;85.10;;;;;;5459894;26;20038;-62
2024/04/22 08:52:23;;;;;;;7.63;6.07;;;4.90;85.00;;;;;;5465086;26;20092;-61
2024/04/22 08:54:49;;;;;;;6.82;5.57;;;4.90;85.90;;;;;;5475059;26;20374;-61
2024/04/22 08:57:14;;;;;;;8.52;5.60;;;4.90;85.20;;;;;;5466902;26;19990;-62
2024/04/22 08:59:40;;;;;;;6.93;5.80;;;4.90;85.30;;;;;;5472329;26;20006;-62
2024/04/22 09:02:06;;;;;;;7.53;5.57;;;4.90;85.30;;;;;;5476186;26;20437;-62
2024/04/22 09:04:32;;;;;;;6.13;5.53;;;5.00;85.30;;;;;;5465542;26;20020;-63
2024/04/22 09:07:00;;;;;;;6.43;5.65;;;5.00;85.40;;;;;;5479005;26;19994;-63
2024/04/22 09:09:26;;;;;;;7.72;6.22;;;5.00;85.80;;;;;;5470795;26;20005;-60
2024/04/22 09:11:52;;;;;;;6.32;5.38;;;5.10;86.00;;;;;;5467296;26;19990;-60
2024/04/22 09:14:18;;;;;;;6.22;5.45;;;5.10;86.10;;;;;;5464683;26;20365;-63
2024/04/22 09:16:44;;;;;;;7.00;5.85;;;5.20;86.00;;;;;;5480920;26;20006;-63
2024/04/22 09:19:09;;;;;;;8.95;6.07;;;5.30;85.80;;;;;;5474752;26;19994;-63
2024/04/22 09:21:36;;;;;;;9.27;5.97;;;5.30;85.40;;;;;;5472127;26;19994;-63
2024/04/22 09:24:02;;;;;;;7.97;6.25;;;5.40;84.90;;;;;;5469974;26;20327;-63
2024/04/22 09:26:28;;;;;;;6.95;5.82;;;5.40;84.40;;;;;;5479154;26;20044;-63
2024/04/22 09:29:01;;;;;;;7.30;6.55;;;5.40;84.20;;;;;;5478740;26;20014;-63
2024/04/22 09:31:26;;;;;;;8.45;6.00;;;5.40;84.00;;;;;;5478714;26;20027;-63
2024/04/22 09:33:55;;;;;;;16.52;10.20;;;5.40;84.00;;;;;;5473459;26;20043;-63
2024/04/22 09:36:22;;;;;;;10.57;6.72;;;5.40;84.20;;;;;;5471435;26;19994;-63
2024/04/22 09:38:50;;;;;;;6.90;6.20;;;5.40;84.20;;;;;;5468806;26;20455;-62
2024/04/22 09:41:19;;;;;;;10.60;5.90;;;5.50;84.00;;;;;;5468505;26;20002;-63
2024/04/22 09:43:46;;;;;;;10.20;5.70;;;5.50;84.20;;;;;;5466368;26;20463;-63
2024/04/22 09:46:12;;;;;;;8.02;5.70;;;5.50;84.20;;;;;;5470271;26;20084;-62
2024/04/22 09:48:39;;;;;;;7.20;5.88;;;5.50;84.10;;;;;;5477524;26;19995;-63
2024/04/22 09:51:07;;;;;;;8.05;5.78;;;5.50;84.00;;;;;;5470226;26;20467;-63
2024/04/22 09:53:33;;;;;;;7.28;5.90;;;5.50;83.80;;;;;;5468456;26;19999;-63
2024/04/22 09:56:04;;;;;;;7.13;5.60;;;5.50;83.80;;;;;;5464972;26;20480;-61
2024/04/22 09:58:33;;;;;;;6.40;5.05;;;5.50;83.80;;;;;;5458775;26;20041;-63
2024/04/22 10:00:59;;;;;;;6.65;5.90;;;5.50;84.60;;;;;;5475027;26;20000;-62
2024/04/22 10:03:26;;;;;;;6.10;5.28;;;5.50;83.70;;;;;;5476536;26;20008;-61
2024/04/22 10:05:56;;;;;;;10.13;5.88;;;5.50;83.70;;;;;;5474230;26;20010;-63
2024/04/22 10:08:22;;;;;;;8.02;6.07;;;5.50;83.80;;;;;;5473327;26;20442;-61
2024/04/22 10:10:48;;;;;;;8.40;5.85;;;5.50;83.70;;;;;;5467243;26;19994;-62
2024/04/22 10:13:14;;;;;;;7.07;5.60;;;5.50;83.60;;;;;;5477516;26;20038;-63
2024/04/22 10:15:40;;;;;;;6.72;5.38;;;5.60;83.70;;;;;;5475132;26;20006;-62
2024/04/22 10:18:14;;;;;;;5.68;4.85;;;5.60;83.60;;;;;;5475760;26;20449;-63
2024/04/22 10:20:41;;;;;;;8.10;4.75;;;5.60;83.30;;;;;;5474536;26;19994;-63
2024/04/22 10:23:07;;;;;;;6.22;4.93;;;5.50;83.30;;;;;;5477782;26;20338;-63
2024/04/22 10:25:33;;;;;;;6.22;4.68;;;5.50;83.20;;;;;;5474522;26;19991;-63
2024/04/22 10:27:59;;;;;;;6.68;4.78;;;5.50;83.40;;;;;;5477649;26;20013;-63
2024/04/22 10:30:39;;;;;;;7.80;4.82;;;5.50;83.80;;;;;;5472718;26;20009;-62
2024/04/22 10:33:05;;;;;;;8.23;4.80;;;5.60;84.00;;;;;;5462256;26;20034;-63
2024/04/22 10:35:31;;;;;;;7.00;4.85;;;5.60;83.90;;;;;;5474828;26;19994;-62
2024/04/22 10:37:57;;;;;;;6.25;4.68;;;5.60;84.00;;;;;;5470642;26;19998;-62
2024/04/22 10:40:23;;;;;;;6.10;4.93;;;5.70;84.20;;;;;;5478618;26;20053;-63
2024/04/22 10:42:49;;;;;;;5.70;5.07;;;5.70;84.00;;;;;;5460699;26;20221;-63
2024/04/22 10:45:15;;;;;;;6.68;5.45;;;5.70;84.00;;;;;;5469860;26;19994;-62
2024/04/22 10:47:41;;;;;;;6.40;5.38;;;5.80;83.70;;;;;;5476967;26;20006;-61
2024/04/22 10:50:17;;;;;;;6.63;5.40;;;5.80;83.50;;;;;;5474696;26;20043;-61
2024/04/22 10:52:42;;;;;;;5.97;5.38;;;5.90;83.60;;;;;;5468093;26;20348;-62
2024/04/22 10:55:08;;;;;;;6.22;5.63;;;6.00;83.60;;;;;;5475770;26;20005;-62
2024/04/22 10:57:34;;;;;;;6.53;5.63;;;6.00;83.30;;;;;;5467049;26;20010;-63
2024/04/22 11:00:04;;;;;;;6.75;5.57;;;6.10;83.10;;;;;;5478485;26;20023;-61
2024/04/22 11:02:31;;;;;;;7.25;5.93;;;6.10;82.70;;;;;;5477548;26;20022;-61
2024/04/22 11:04:57;;;;;;;6.72;5.50;;;6.20;82.50;;;;;;5469006;26;19998;-63
2024/04/22 11:07:24;;;;;;;6.43;5.40;;;6.20;82.50;;;;;;5479489;26;20006;-63
2024/04/22 11:09:51;;;;;;;7.55;5.68;;;6.30;82.40;;;;;;5465155;26;20003;-62
2024/04/22 11:12:17;;;;;;;6.00;5.40;;;6.40;82.00;;;;;;5473044;26;19998;-63
2024/04/22 11:14:43;;;;;;;6.18;5.55;;;6.40;81.50;;;;;;5472053;26;20066;-62
2024/04/22 11:17:12;;;;;;;6.93;5.90;;;6.40;81.60;;;;;;5458748;26;20011;-61
2024/04/22 11:19:39;;;;;;;7.38;5.65;;;6.50;81.60;;;;;;5468373;26;20066;-62
2024/04/22 11:22:06;;;;;;;6.97;5.45;;;6.50;81.40;;;;;;5477162;26;19994;-62
2024/04/22 11:24:32;;;;;;;6.22;5.38;;;6.60;81.30;;;;;;5468789;26;19998;-62
2024/04/22 11:26:58;;;;;;;6.72;5.28;;;6.70;81.20;;;;;;5477538;26;20002;-61
2024/04/22 11:29:25;;;;;;;7.63;5.45;;;6.70;80.90;;;;;;5476236;26;19990;-63
2024/04/22 11:31:55;;;;;;;7.18;5.43;;;6.80;80.90;;;;;;5478073;26;20453;-63
2024/04/22 11:34:24;;;;;;;7.30;5.60;;;6.80;80.50;;;;;;5468645;26;20007;-62
2024/04/22 11:36:55;;;;;;;6.20;4.93;;;6.90;80.30;;;;;;5481269;26;20009;-63
2024/04/22 11:39:21;;;;;;;6.00;5.30;;;6.90;80.10;;;;;;5470754;26;20063;-61
2024/04/22 11:41:47;;;;;;;5.80;5.03;;;7.00;80.30;;;;;;5455634;26;20035;-62
2024/04/22 11:44:13;;;;;;;5.68;4.90;;;7.10;80.20;;;;;;5476886;26;20009;-62
2024/04/22 11:46:42;;;;;;;7.60;5.05;;;7.10;79.60;;;;;;5478870;26;20001;-62
2024/04/22 11:49:07;;;;;;;5.65;5.05;;;7.20;79.50;;;;;;5466696;26;19994;-63
2024/04/22 11:51:33;;;;;;;5.55;4.97;;;7.30;79.10;;;;;;5471755;26;20040;-62
2024/04/22 11:53:59;;;;;;;5.75;4.85;;;7.30;78.60;;;;;;5474075;26;20044;-63
2024/04/22 11:56:30;;;;;;;5.72;4.90;;;7.30;77.80;;;;;;5478835;26;19998;-62
2024/04/22 11:58:57;;;;;;;5.97;5.00;;;7.40;77.90;;;;;;5464913;26;20017;-62
2024/04/22 12:01:22;;;;;;;6.00;5.00;;;7.40;77.50;;;;;;5470067;26;20051;-61
2024/04/22 12:03:48;;;;;;;8.65;5.20;;;7.40;77.30;;;;;;5479178;26;19998;-62
2024/04/22 12:06:13;;;;;;;6.00;5.03;;;7.40;77.00;;;;;;5466548;26;20000;-62
2024/04/22 12:08:39;;;;;;;6.43;4.45;;;7.40;76.80;;;;;;5480351;26;20014;-63
2024/04/22 12:11:04;;;;;;;6.45;5.05;;;7.40;76.60;;;;;;5473698;26;20005;-63
2024/04/22 12:13:30;;;;;;;5.32;4.78;;;7.40;76.60;;;;;;5470914;26;20020;-62
2024/04/22 12:15:56;;;;;;;5.10;4.43;;;7.40;76.60;;;;;;5480676;26;19994;-63
2024/04/22 12:18:21;;;;;;;5.15;4.57;;;7.50;76.70;;;;;;5454192;26;19998;-63
2024/04/22 12:20:47;;;;;;;6.22;4.68;;;7.50;76.70;;;;;;5475547;26;20335;-63
2024/04/22 12:23:12;;;;;;;5.53;4.78;;;7.50;76.80;;;;;;5479285;26;20043;-62
2024/04/22 12:25:38;;;;;;;5.32;4.55;;;7.50;76.80;;;;;;5472792;26;19994;-61
2024/04/22 12:28:04;;;;;;;5.45;4.70;;;7.60;76.80;;;;;;5476281;26;19995;-63
2024/04/22 12:30:29;;;;;;;5.15;4.60;;;7.60;76.80;;;;;;5474748;26;20029;-62
2024/04/22 12:32:55;;;;;;;5.40;4.32;;;7.60;76.90;;;;;;5470303;26;20076;-62
2024/04/22 12:35:20;;;;;;;5.40;3.90;;;7.70;77.10;;;;;;5468277;26;20016;-63
2024/04/22 12:37:46;;;;;;;5.60;4.18;;;7.70;76.80;;;;;;5463917;26;20026;-61
2024/04/22 12:40:11;;;;;;;6.38;4.10;;;7.70;76.50;;;;;;5478928;26;19998;-61
2024/04/22 12:42:37;;;;;;;5.55;4.43;;;7.80;76.50;;;;;;5466128;26;20333;-61
2024/04/22 12:45:04;;;;;;;6.68;4.10;;;7.90;76.50;;;;;;5472073;26;19998;-63
2024/04/22 12:53:17;;;;;;;3.13;2.85;;;8.10;76.10;;;;;;5344914;26;20234;-63
2024/04/22 12:55:44;;;;;;;3.20;2.72;;;8.10;75.30;;;;;;5352164;26;19997;-62
2024/04/22 12:58:10;;;;;;;4.32;3.30;;;8.20;74.30;;;;;;5406566;26;19998;-64
2024/04/22 13:00:36;;;;;;;10.30;5.30;;;8.20;73.60;;;;;;5461571;26;20009;-63
2024/04/22 13:03:03;;;;;;;11.00;6.60;;;8.20;73.20;;;;;;5470531;26;20339;-63